createdAt,value
2017-07-10T00:02:58.989Z,5.60
2017-07-10T00:08:01.453Z,5.53
2017-07-10T00:13:04.383Z,5.13
2017-07-10T00:18:06.875Z,5.30
2017-07-10T00:23:09.365Z,5.50
2017-07-10T00:28:11.141Z,4.73
2017-07-10T00:33:13.634Z,4.60
2017-07-10T00:38:16.126Z,4.37
2017-07-10T00:43:18.618Z,4.63
2017-07-10T00:48:21.110Z,5.00
2017-07-10T00:53:23.603Z,5.60
2017-07-10T00:58:26.297Z,5.27
2017-07-10T01:03:28.970Z,5.30
2017-07-10T01:08:30.646Z,5.27
2017-07-10T01:13:32.317Z,5.13
2017-07-10T01:18:33.986Z,4.70
2017-07-10T01:23:35.686Z,4.60
2017-07-10T01:28:38.149Z,5.00
2017-07-10T01:33:39.850Z,3.90
2017-07-10T01:38:43.104Z,4.67
2017-07-10T01:43:45.037Z,5.03
2017-07-10T01:48:48.145Z,5.10
2017-07-10T01:53:49.920Z,4.90
2017-07-10T01:58:52.617Z,5.80
2017-07-10T02:03:54.392Z,5.60
2017-07-10T02:08:56.883Z,5.33
2017-07-10T02:13:59.376Z,5.20
2017-07-10T02:19:01.048Z,5.03
2017-07-10T02:24:03.517Z,4.80
2017-07-10T02:29:05.211Z,4.63
2017-07-10T02:34:07.641Z,4.27
2017-07-10T02:39:09.376Z,4.97
2017-07-10T02:44:26.574Z,4.57
2017-07-10T02:49:43.056Z,4.40
2017-07-10T02:54:59.605Z,4.57
2017-07-10T03:00:16.779Z,5.37
2017-07-10T03:05:33.283Z,4.80
2017-07-10T03:10:49.709Z,4.70
2017-07-10T03:16:06.129Z,4.50
2017-07-10T03:21:23.011Z,4.33
2017-07-10T03:26:26.017Z,4.70
2017-07-10T03:31:27.755Z,4.40
2017-07-10T03:36:30.186Z,4.30
2017-07-10T03:41:31.900Z,4.80
2017-07-10T03:46:33.593Z,4.80
2017-07-10T03:51:36.086Z,4.60
2017-07-10T03:56:39.010Z,4.40
2017-07-10T04:01:40.657Z,4.50
2017-07-10T04:06:43.148Z,4.23
2017-07-10T04:11:44.822Z,4.20
2017-07-10T04:16:47.314Z,4.07
2017-07-10T04:21:50.057Z,4.23
2017-07-10T04:26:51.791Z,4.13
2017-07-10T04:31:54.258Z,3.90
2017-07-10T04:36:56.133Z,3.80
2017-07-10T04:41:57.802Z,3.90
2017-07-10T04:47:00.627Z,4.60
2017-07-10T04:52:03.097Z,4.53
2017-07-10T04:57:04.775Z,4.20
2017-07-10T05:02:06.541Z,3.80
2017-07-10T05:07:08.526Z,3.40
2017-07-10T05:12:10.219Z,3.73
2017-07-10T05:17:12.686Z,3.80
2017-07-10T05:22:14.383Z,3.50
2017-07-10T05:27:17.490Z,3.40
2017-07-10T05:32:19.982Z,4.17
2017-07-10T05:37:23.227Z,3.40
2017-07-10T05:42:25.146Z,3.67
2017-07-10T05:47:26.842Z,3.40
2017-07-10T05:52:29.334Z,3.10
2017-07-10T05:57:31.801Z,4.20
2017-07-10T06:02:33.474Z,3.40
2017-07-10T06:07:35.274Z,3.33
2017-07-10T06:12:36.927Z,3.27
2017-07-10T06:18:02.561Z,3.20
2017-07-10T06:23:04.252Z,3.63
2017-07-10T06:28:05.897Z,3.27
2017-07-10T06:33:08.213Z,3.40
2017-07-10T06:38:10.705Z,3.10
2017-07-10T06:43:13.130Z,3.63
2017-07-10T06:48:14.805Z,3.40
2017-07-10T06:53:16.542Z,4.07
2017-07-10T06:58:18.318Z,4.70
2017-07-10T07:03:20.809Z,3.67
2017-07-10T07:08:23.273Z,4.37
2017-07-10T07:13:24.946Z,4.37
2017-07-10T07:18:26.648Z,4.10
2017-07-10T07:23:29.958Z,4.23
2017-07-10T07:28:31.733Z,4.63
2017-07-10T07:33:34.225Z,4.20
2017-07-10T07:38:36.654Z,3.77
2017-07-10T07:43:38.882Z,4.40
2017-07-10T07:48:41.221Z,4.80
2017-07-10T07:53:42.964Z,5.10
2017-07-10T07:58:44.737Z,4.40
2017-07-10T08:03:46.411Z,4.40
2017-07-10T08:08:48.903Z,4.20
2017-07-10T08:13:51.395Z,4.20
2017-07-10T08:18:53.861Z,3.93
2017-07-10T08:23:55.537Z,4.17
2017-07-10T08:28:57.247Z,3.80
2017-07-10T08:33:59.905Z,3.50
2017-07-10T08:39:01.604Z,3.17
2017-07-10T08:44:04.094Z,3.87
2017-07-10T08:49:06.586Z,3.10
2017-07-10T08:54:09.078Z,3.33
2017-07-10T08:59:11.571Z,3.90
2017-07-10T09:04:14.061Z,3.67
2017-07-10T09:09:16.555Z,3.37
2017-07-10T09:14:19.047Z,4.90
2017-07-10T09:19:21.537Z,4.60
2017-07-10T09:24:23.142Z,3.93
2017-07-10T09:29:24.882Z,3.83
2017-07-10T09:34:27.374Z,3.67
2017-07-10T09:39:29.049Z,3.50
2017-07-10T09:44:31.513Z,3.90
2017-07-10T09:49:33.190Z,4.53
2017-07-10T09:54:34.884Z,4.60
2017-07-10T09:59:37.376Z,3.80
2017-07-10T10:04:39.867Z,4.10
2017-07-10T10:09:42.318Z,4.67
2017-07-10T10:14:44.033Z,4.13
2017-07-10T10:19:46.525Z,4.50
2017-07-10T10:24:49.538Z,4.40
2017-07-10T10:29:51.826Z,4.57
2017-07-10T10:34:53.590Z,4.57
2017-07-10T10:39:56.083Z,4.50
2017-07-10T10:44:58.574Z,5.50
2017-07-10T10:50:01.068Z,5.10
2017-07-10T10:55:03.494Z,4.60
2017-07-10T11:00:05.231Z,4.80
2017-07-10T11:05:07.657Z,5.30
2017-07-10T11:10:09.396Z,5.20
2017-07-10T11:15:26.841Z,5.37
2017-07-10T11:20:29.329Z,5.93
2017-07-10T11:25:31.823Z,5.53
2017-07-10T11:30:34.314Z,5.17
2017-07-10T11:35:36.806Z,4.50
2017-07-10T11:40:39.297Z,4.53
2017-07-10T11:45:41.791Z,4.73
2017-07-10T11:50:44.283Z,5.37
2017-07-10T11:55:46.774Z,5.33
2017-07-10T12:00:49.266Z,4.77
2017-07-10T12:05:51.759Z,5.10
2017-07-10T12:10:54.186Z,5.43
2017-07-10T12:15:56.494Z,5.20
2017-07-10T12:20:58.186Z,6.10
2017-07-10T12:25:59.884Z,6.57
2017-07-10T12:31:02.376Z,7.77
2017-07-10T12:36:04.848Z,6.90
2017-07-10T12:41:06.517Z,6.10
2017-07-10T12:46:08.189Z,6.20
2017-07-10T12:51:09.886Z,6.10
2017-07-10T12:56:12.379Z,3.90
2017-07-10T13:01:14.870Z,4.23
2017-07-10T13:06:18.464Z,3.67
2017-07-10T13:11:20.879Z,3.67
2017-07-10T13:16:23.809Z,2.90
2017-07-10T13:21:25.739Z,3.00
2017-07-10T13:26:30.098Z,3.30
2017-07-10T13:31:32.998Z,3.87
2017-07-10T13:36:35.693Z,3.50
2017-07-10T13:41:38.596Z,3.73
2017-07-10T13:46:41.884Z,3.60
2017-07-10T13:51:44.299Z,3.97
2017-07-10T13:56:46.731Z,3.70
2017-07-10T14:01:49.871Z,3.37
2017-07-10T14:06:52.215Z,3.30
2017-07-10T14:11:55.595Z,3.67
2017-07-10T14:16:58.703Z,3.63
2017-07-10T14:22:00.960Z,3.67
2017-07-10T14:27:02.660Z,3.63
2017-07-10T14:32:05.153Z,3.70
2017-07-10T14:37:07.502Z,4.30
2017-07-10T14:42:09.216Z,4.00
2017-07-10T14:47:10.965Z,4.57
2017-07-10T14:52:12.637Z,2.87
2017-07-10T14:57:14.337Z,1.90
2017-07-10T15:02:16.829Z,2.10
2017-07-10T15:07:18.605Z,2.30
2017-07-10T15:12:21.096Z,2.00
2017-07-10T15:17:23.564Z,2.30
2017-07-10T15:22:25.261Z,2.60
2017-07-10T15:27:27.724Z,2.50
2017-07-10T15:32:29.340Z,2.63
2017-07-10T15:37:31.742Z,3.20
2017-07-10T15:42:33.408Z,4.33
2017-07-10T15:47:35.132Z,4.63
2017-07-10T15:52:36.752Z,5.43
2017-07-10T15:57:38.509Z,6.07
2017-07-10T16:02:40.967Z,10.77
2017-07-10T16:07:42.672Z,3.90
2017-07-10T16:12:44.344Z,4.30
2017-07-10T16:17:46.834Z,3.83
2017-07-10T16:22:48.609Z,3.67
2017-07-10T16:27:51.033Z,3.83
2017-07-10T16:32:52.978Z,3.97
2017-07-10T16:37:55.410Z,3.30
2017-07-10T16:42:57.143Z,3.00
2017-07-10T16:47:59.635Z,3.40
2017-07-10T16:53:02.126Z,3.87
2017-07-10T16:58:04.619Z,3.20
2017-07-10T17:03:08.135Z,3.87
2017-07-10T17:08:10.628Z,3.10
2017-07-10T17:13:12.401Z,3.40
2017-07-10T17:18:14.690Z,3.10
2017-07-10T17:23:17.311Z,3.30
2017-07-10T17:28:20.313Z,3.30
2017-07-10T17:33:21.960Z,3.10
2017-07-10T17:38:26.168Z,3.37
2017-07-10T17:43:27.968Z,3.10
2017-07-10T17:48:29.745Z,3.17
2017-07-10T17:53:31.519Z,3.30
2017-07-10T17:58:34.937Z,3.17
2017-07-10T18:03:51.657Z,3.23
2017-07-10T18:08:53.331Z,4.30
2017-07-10T18:13:55.824Z,3.90
2017-07-10T18:18:58.314Z,3.80
2017-07-10T18:24:00.780Z,3.40
2017-07-10T18:29:02.480Z,3.53
2017-07-10T18:34:04.971Z,4.17
2017-07-10T18:39:07.471Z,4.07
2017-07-10T18:44:09.966Z,4.27
2017-07-10T18:49:13.440Z,4.03
2017-07-10T18:54:15.349Z,3.90
2017-07-10T18:59:17.768Z,4.33
2017-07-10T19:04:19.336Z,4.03
2017-07-10T19:09:21.058Z,3.97
2017-07-10T19:14:22.684Z,3.77
2017-07-10T19:19:24.362Z,3.70
2017-07-10T19:24:26.323Z,3.30
2017-07-10T19:29:28.186Z,3.40
2017-07-10T19:34:30.682Z,3.30
2017-07-10T19:39:32.284Z,3.27
2017-07-10T19:44:33.957Z,3.57
2017-07-10T19:49:35.649Z,3.00
2017-07-10T19:54:37.340Z,3.50
2017-07-10T19:59:39.015Z,3.60
2017-07-10T20:04:41.124Z,3.00
2017-07-10T20:09:42.898Z,3.30
2017-07-10T20:14:45.392Z,3.30
2017-07-10T20:19:48.370Z,3.10
2017-07-10T20:24:50.026Z,3.10
2017-07-10T20:29:51.682Z,3.00
2017-07-10T20:34:53.411Z,3.20
2017-07-10T20:39:55.907Z,2.73
2017-07-10T20:44:58.395Z,2.90
2017-07-10T20:50:00.888Z,3.40
2017-07-10T20:55:03.319Z,3.63
2017-07-10T21:00:05.052Z,3.40
2017-07-10T21:05:07.544Z,3.70
2017-07-10T21:10:10.035Z,3.57
2017-07-10T21:15:12.527Z,3.10
2017-07-10T21:20:15.019Z,2.97
2017-07-10T21:25:17.428Z,3.40
2017-07-10T21:30:19.156Z,3.40
2017-07-10T21:35:20.830Z,3.30
2017-07-10T21:40:22.502Z,3.47
2017-07-10T21:45:24.173Z,3.73
2017-07-10T21:50:25.848Z,3.80
2017-07-10T21:55:27.580Z,3.60
2017-07-10T22:00:29.153Z,3.93
2017-07-10T22:05:30.725Z,4.30
2017-07-10T22:10:32.400Z,4.20
2017-07-10T22:15:34.136Z,4.10
2017-07-10T22:20:36.629Z,4.43
2017-07-10T22:25:39.120Z,4.83
2017-07-10T22:30:41.614Z,4.60
2017-07-10T22:35:44.043Z,4.20
2017-07-10T22:40:45.780Z,4.60
2017-07-10T22:45:48.206Z,4.30
2017-07-10T22:50:50.622Z,5.10
2017-07-10T22:55:52.414Z,4.60
2017-07-10T23:00:54.108Z,4.43
2017-07-10T23:05:56.599Z,4.53
2017-07-10T23:10:59.072Z,4.87
2017-07-10T23:16:00.867Z,5.00
2017-07-10T23:21:03.360Z,4.80
2017-07-10T23:26:05.790Z,4.90
2017-07-10T23:31:07.497Z,4.80
2017-07-10T23:36:09.194Z,5.47
2017-07-10T23:41:11.686Z,5.20
2017-07-10T23:46:13.391Z,5.17
2017-07-10T23:51:15.056Z,5.30
2017-07-10T23:56:18.174Z,5.53
